Data for 05/22/2010

Time Sea-Level Adjusted Pressure Absolute Pressure Temperature Relative Humidity Dew Point   
(mb) (inHg) (mb) (inHg) (C) (F) (%) (C) (F)
00:05 1005 29.68 834 24.63 6.9 44.4 74 2.6 36.6
00:10 1005 29.68 834 24.63 7 44.7 73 2.5 36.4
00:15 1004 29.65 834 24.63 6.9 44.4 75 2.7 36.9
00:20 1005 29.68 834 24.63 6.7 44 78 3.1 37.5
00:25 1004 29.65 834 24.63 6.4 43.5 81 3.3 38
00:30 1004 29.65 834 24.63 6.1 43.1 81 3.2 37.7
00:35 1004 29.65 834 24.63 6 42.9 79 2.6 36.7
00:40 1004 29.65 834 24.63 6 42.8 80 2.7 36.9
00:45 1004 29.65 834 24.63 5.9 42.5 80 2.6 36.7
00:50 1004 29.65 833 24.6 5.8 42.5 80 2.6 36.7
00:55 1004 29.65 834 24.63 5.9 42.7 78 2.4 36.3
01:00 1004 29.65 834 24.63 6.3 43.4 79 2.9 37.2
01:05 1004 29.65 834 24.63 6.4 43.5 78 2.9 37.2
01:10 1004 29.65 834 24.63 6.3 43.4 81 3.3 37.9
01:15 1004 29.65 834 24.63 5.8 42.4 81 2.7 36.9
01:20 1004 29.65 833 24.6 5.2 41.4 85 3 37.4
01:25 1004 29.65 834 24.63 4.9 40.9 87 2.9 37.3
01:30 1005 29.68 834 24.63 5 41 86 2.9 37.2
01:35 1004 29.65 834 24.63 5.1 41.2 86 2.9 37.2
01:40 1004 29.65 834 24.63 5.3 41.5 85 2.9 37.2
01:45 1004 29.65 834 24.63 5.3 41.6 86 3.1 37.6
01:50 1004 29.65 834 24.63 5.4 41.7 84 3 37.3
01:55 1004 29.65 834 24.63 5.5 41.8 85 3.2 37.8
02:00 1004 29.65 833 24.6 5.3 41.6 86 3.2 37.8
02:05 1004 29.65 833 24.6 5.2 41.3 86 3.1 37.5
02:10 1004 29.65 833 24.6 5.1 41.2 84 2.7 36.8
02:15 1004 29.65 833 24.6 5 41 86 2.8 37.1
02:20 1004 29.65 833 24.6 4.9 40.8 87 2.8 37.1
02:25 1004 29.65 833 24.6 4.8 40.6 86 2.7 36.8
02:30 1004 29.65 833 24.6 4.6 40.3 88 2.9 37.1
02:35 1004 29.65 833 24.6 4.6 40.2 89 3 37.3
02:40 1004 29.65 833 24.6 4.5 40.1 90 2.9 37.3
02:45 1004 29.65 834 24.63 4.5 40 90 3 37.4
02:50 1004 29.65 834 24.63 4.5 40.1 89 2.8 37.1
02:55 1004 29.65 834 24.63 4.5 40.2 89 2.8 37.1
03:00 1004 29.65 834 24.63 4.4 39.9 88 2.6 36.7
03:05 1004 29.65 834 24.63 4.3 39.8 87 2.4 36.3
03:10 1004 29.65 834 24.63 4.2 39.5 88 2.4 36.3
03:15 1005 29.68 834 24.63 4 39.2 88 2.1 35.8
03:20 1005 29.68 834 24.63 3.7 38.7 88 2 35.6
03:25 1005 29.68 834 24.63 3.4 38.2 91 2 35.6
03:30 1005 29.68 834 24.63 3.1 37.7 91 1.9 35.4
03:35 1005 29.68 834 24.63 2.9 37.2 92 1.7 35.1
03:40 1005 29.68 834 24.63 2.9 37.2 91 1.6 34.9
03:45 1005 29.68 834 24.63 2.7 36.9 92 1.5 34.7
03:50 1005 29.68 834 24.63 2.8 37.1 93 1.8 35.2
03:55 1004 29.65 834 24.63 2.8 37.1 91 1.6 34.8
04:00 1004 29.65 834 24.63 2.7 36.8 92 1.5 34.6
04:05 1004 29.65 834 24.63 2.3 36.2 92 1.1 34
04:10 1004 29.65 834 24.63 2 35.6 93 0.9 33.7
04:15 1004 29.65 834 24.63 1.9 35.4 93 1 33.7
04:20 1004 29.65 833 24.6 2 35.6 93 1 33.9
04:25 1004 29.65 833 24.6 2 35.5 93 1 33.8
04:30 1004 29.65 834 24.63 1.8 35.3 94 1 33.7
04:35 1004 29.65 833 24.6 2 35.6 93 1 33.7
04:40 1004 29.65 833 24.6 2 35.6 93 1 33.8
04:45 1004 29.65 833 24.6 2.1 35.7 93 1 33.8
04:50 1004 29.65 833 24.6 2.2 35.9 93 1.1 34
04:55 1004 29.65 833 24.6 2.3 36.1 92 1.1 34.1
05:00 1004 29.65 833 24.6 2.3 36.1 92 1.2 34.1
05:05 1004 29.65 833 24.6 2.3 36.2 92 1.2 34.1
05:10 1004 29.65 833 24.6 2.3 36.2 93 1.3 34.3
05:15 1004 29.65 833 24.6 2.4 36.3 92 1.2 34.2
05:20 1004 29.65 833 24.6 2.4 36.4 91 1.1 34
05:25 1004 29.65 833 24.6 2.1 35.8 92 0.9 33.6
05:30 1004 29.65 833 24.6 2 35.6 93 0.9 33.6
05:35 1004 29.65 833 24.6 2.2 35.9 91 0.9 33.7
05:40 1004 29.65 833 24.6 2.2 35.9 93 1.1 34
05:45 1004 29.65 833 24.6 2.3 36.2 92 1.2 34.2
05:50 1004 29.65 833 24.6 2.4 36.3 91 1 33.9
05:55 1004 29.65 833 24.6 2.1 35.8 92 0.9 33.7
06:00 1004 29.65 833 24.6 2.1 35.7 92 0.9 33.7
06:05 1004 29.65 833 24.6 2.1 35.8 92 0.9 33.6
06:10 1004 29.65 833 24.6 2 35.7 92 0.9 33.7
06:15 1004 29.65 833 24.6 2 35.6 92 0.9 33.6
06:20 1004 29.65 833 24.6 2 35.7 92 0.9 33.6
06:25 1004 29.65 833 24.6 2.1 35.7 92 0.9 33.7
06:30 1004 29.65 833 24.6 2.2 35.9 92 1 33.8
06:35 1004 29.65 833 24.6 2.2 36 93 1.1 34
06:40 1004 29.65 833 24.6 2.1 35.9 92 1 33.7
06:45 1004 29.65 833 24.6 2.1 35.8 93 1 33.9
06:50 1004 29.65 833 24.6 2.2 35.9 93 1.1 34
06:55 1004 29.65 833 24.6 2.2 35.9 92 1.1 33.9
07:00 1004 29.65 834 24.63 2.1 35.7 93 1 33.8
07:05 1004 29.65 834 24.63 2 35.6 93 0.9 33.7
07:10 1004 29.65 834 24.63 1.9 35.4 92 0.8 33.4
07:15 1004 29.65 833 24.6 1.8 35.3 93 0.8 33.5
07:20 1004 29.65 833 24.6 1.9 35.4 93 0.9 33.6
07:25 1004 29.65 833 24.6 2 35.6 92 0.9 33.7
07:30 1004 29.65 833 24.6 2.1 35.7 93 1.1 33.9
07:35 1004 29.65 834 24.63 2 35.6 92 0.9 33.6
07:40 1004 29.65 834 24.63 1.7 35 93 0.7 33.2
07:45 1004 29.65 834 24.63 1.4 34.6 93 0.5 32.8
07:50 1004 29.65 834 24.63 1.4 34.5 94 0.5 32.9
07:55 1004 29.65 834 24.63 1.3 34.4 94 0.4 32.8
08:00 1004 29.65 834 24.63 1.1 34 94 0.3 32.5
08:05 1004 29.65 834 24.63 0.9 33.6 95 0.1 32.2
08:10 1004 29.65 834 24.63 0.7 33.2 95 0 32
08:15 1004 29.65 834 24.63 0.6 33.1 96 -0 32
08:20 1004 29.65 834 24.63 0.6 33.1 96 0 32
08:25 1004 29.65 834 24.63 0.6 33.1 96 0.1 32.2
08:30 1004 29.65 834 24.63 0.8 33.5 96 0.2 32.4
08:35 1005 29.68 834 24.63 0.8 33.5 96 0.3 32.5
08:40 1005 29.68 834 24.63 1.1 33.9 96 0.5 32.8
08:45 1005 29.68 834 24.63 1.3 34.3 95 0.6 33.1
08:50 1005 29.68 834 24.63 1.4 34.6 94 0.6 33.1
08:55 1005 29.68 834 24.63 1.5 34.8 94 0.6 33.2
09:00 1005 29.68 834 24.63 1.6 34.9 93 0.6 33
09:05 1005 29.68 834 24.63 1.7 35 93 0.6 33
09:10 1005 29.68 834 24.63 1.6 34.8 93 0.6 33
09:15 1005 29.68 834 24.63 1.4 34.5 93 0.4 32.7
09:20 1005 29.68 834 24.63 1.1 33.9 95 0.3 32.6
09:25 1005 29.68 834 24.63 1.4 34.5 95 0.7 33.2
09:30 1005 29.68 834 24.63 1.8 35.3 95 1.1 34
09:35 1005 29.68 834 24.63 2.3 36.2 92 1.2 34.1
09:40 1005 29.68 834 24.63 2.5 36.5 92 1.3 34.4
09:45 1005 29.68 834 24.63 2.4 36.4 91 1.2 34.1
09:50 1005 29.68 834 24.63 2.3 36.1 93 1.2 34.2
09:55 1005 29.68 834 24.63 2.3 36.2 92 1.2 34.1
10:00 1005 29.68 834 24.63 2.2 36 92 1 33.8
10:05 1005 29.68 834 24.63 2.1 35.7 93 1 33.7
10:10 1005 29.68 834 24.63 1.8 35.2 93 0.7 33.3
10:15 1005 29.68 834 24.63 1.4 34.5 94 0.5 32.9
10:20 1005 29.68 834 24.63 1.3 34.3 94 0.4 32.7
10:25 1005 29.68 834 24.63 1.1 34 94 0.2 32.4
10:30 1005 29.68 834 24.63 1 33.8 94 0.2 32.3
10:35 1005 29.68 834 24.63 1.1 34 94 0.3 32.5
10:40 1005 29.68 834 24.63 1.3 34.4 94 0.4 32.8
10:45 1005 29.68 834 24.63 1.5 34.7 93 0.4 32.8
10:50 1005 29.68 834 24.63 1.6 34.8 93 0.5 33
10:55 1005 29.68 834 24.63 1.7 35 92 0.5 32.9
11:00 1005 29.68 834 24.63 1.9 35.4 93 0.9 33.6
11:05 1005 29.68 834 24.63 3.2 37.7 88 1.4 34.6
11:10 1005 29.68 834 24.63 3.4 38 88 1.6 34.8
11:15 1005 29.68 834 24.63 3.1 37.6 88 1.3 34.3
11:20 1005 29.68 834 24.63 3.1 37.7 89 1.5 34.7
11:25 1005 29.68 834 24.63 2.9 37.3 89 1.4 34.5
11:30 1005 29.68 834 24.63 2.6 36.7 91 1.3 34.4
11:35 1005 29.68 834 24.63 2.2 36 92 1 33.8
11:40 1005 29.68 834 24.63 2.1 35.8 92 0.9 33.6
11:45 1005 29.68 834 24.63 1.9 35.5 92 0.7 33.3
11:50 1005 29.68 834 24.63 1.9 35.4 92 0.7 33.2
11:55 1005 29.68 834 24.63 1.6 35 93 0.6 33.1
12:00 1005 29.68 834 24.63 1.6 34.8 94 0.7 33.2
12:05 1005 29.68 834 24.63 2 35.5 93 1 33.8
12:10 1005 29.68 834 24.63 2.6 36.6 93 1.6 34.8
12:15 1005 29.68 835 24.66 3.2 37.8 91 2 35.5
12:20 1005 29.68 835 24.66 3.4 38.1 87 1.4 34.6
12:25 1005 29.68 835 24.66 3.4 38 86 1.3 34.3
12:30 1005 29.68 835 24.66 3.4 38.2 86 1.4 34.5
12:35 1005 29.68 835 24.66 3.5 38.4 86 1.4 34.5
12:40 1005 29.68 835 24.66 3.5 38.3 87 1.5 34.6
12:45 1005 29.68 835 24.66 3.9 38.9 84 1.4 34.5
12:50 1005 29.68 835 24.66 4.1 39.4 83 1.5 34.7
12:55 1005 29.68 835 24.66 4.1 39.5 84 1.8 35.2
13:00 1005 29.68 835 24.66 4.1 39.4 78 0.7 33.2
13:05 1005 29.68 835 24.66 4.1 39.4 83 1.5 34.7
13:10 1005 29.68 835 24.66 4.4 39.8 85 2 35.6
13:15 1005 29.68 835 24.66 4.2 39.5 83 1.5 34.7
13:20 1006 29.71 835 24.66 4.1 39.3 83 1.4 34.5
13:25 1006 29.71 835 24.66 4.2 39.6 81 1.2 34.2
13:30 1006 29.71 835 24.66 4.5 40.2 79 1.3 34.3
13:35 1006 29.71 835 24.66 4.7 40.4 80 1.5 34.7
13:40 1006 29.71 835 24.66 4.7 40.4 79 1.3 34.4
13:45 1006 29.71 835 24.66 4.6 40.2 81 1.6 34.8
13:50 1006 29.71 835 24.66 4.6 40.2 80 1.4 34.4
13:55 1006 29.71 835 24.66 4.5 40.1 79 1.2 34.2
14:00 1006 29.71 835 24.66 4.9 40.8 74 0.7 33.3
14:05 1006 29.71 835 24.66 5.2 41.3 74 0.9 33.6
14:10 1006 29.71 835 24.66 5.5 42 74 1.3 34.4
14:15 1006 29.71 835 24.66 6 42.8 70 1 33.7
14:20 1006 29.71 835 24.66 6.4 43.6 68 1 33.8
14:25 1006 29.71 835 24.66 5.4 41.7 71 0.6 33.1
14:30 1006 29.71 835 24.66 5 41 74 0.8 33.5
14:35 1006 29.71 835 24.66 5.6 42 66 -0.3 31.4
14:40 1006 29.71 835 24.66 5.9 42.7 68 0.5 32.9
14:45 1006 29.71 835 24.66 5.6 42 72 0.9 33.6
14:50 1006 29.71 835 24.66 5.5 41.8 69 0.3 32.5
14:55 1006 29.71 835 24.66 5.7 42.3 76 1.9 35.4
15:00 1006 29.71 835 24.66 5.2 41.3 78 1.7 35.1
15:05 1006 29.71 835 24.66 4.4 40 82 1.7 35
15:10 1006 29.71 835 24.66 4.2 39.6 82 1.4 34.5
15:15 1006 29.71 835 24.66 3.7 38.7 86 1.6 35
15:20 1006 29.71 836 24.69 3.5 38.3 86 1.4 34.5
15:25 1006 29.71 836 24.69 3.3 37.9 90 1.8 35.2
15:30 1006 29.71 836 24.69 3.2 37.8 89 1.6 34.9
15:35 1006 29.71 836 24.69 3.3 38 89 1.6 34.9
15:40 1007 29.74 836 24.69 3.5 38.2 87 1.6 34.8
15:45 1007 29.74 836 24.69 3.5 38.2 90 2 35.5
15:50 1007 29.74 836 24.69 3.5 38.3 90 2 35.5
15:55 1007 29.74 836 24.69 3.5 38.4 88 1.7 35.1
16:00 1007 29.74 836 24.69 3.7 38.6 83 1.1 34
16:05 1007 29.74 836 24.69 3.9 39 83 1.3 34.3
16:10 1007 29.74 836 24.69 4 39.1 84 1.5 34.6
16:15 1007 29.74 836 24.69 3.8 38.8 86 1.7 35
16:20 1007 29.74 836 24.69 3.3 38 87 1.3 34.4
16:25 1007 29.74 836 24.69 2.8 37.1 89 1.1 34
16:30 1007 29.74 836 24.69 2.5 36.6 90 1.1 33.9
16:35 1007 29.74 836 24.69 2.6 36.6 90 1.1 33.9
16:40 1007 29.74 837 24.72 2.7 36.9 88 0.9 33.6
16:45 1007 29.74 837 24.72 2.4 36.3 90 1 33.7
16:50 1008 29.77 837 24.72 2.1 35.8 92 0.9 33.7
16:55 1007 29.74 837 24.72 2.2 36 93 1.2 34.1
17:00 1008 29.77 837 24.72 2.7 36.8 92 1.5 34.7
17:05 1008 29.77 837 24.72 3.2 37.8 90 1.8 35.3
17:10 1007 29.74 837 24.72 3.6 38.5 89 1.9 35.5
17:15 1007 29.74 837 24.72 4 39.2 88 2.1 35.8
17:20 1008 29.77 837 24.72 4.2 39.6 85 1.9 35.4
17:25 1008 29.77 837 24.72 4 39.1 88 2.1 35.8
17:30 1008 29.77 837 24.72 4 39.2 86 1.9 35.5
17:35 1008 29.77 837 24.72 3.9 39 88 2 35.7
17:40 1008 29.77 837 24.72 3.7 38.7 87 1.8 35.2
17:45 1008 29.77 837 24.72 3.5 38.3 87 1.5 34.8
17:50 1008 29.77 837 24.72 3.4 38.1 88 1.5 34.7
17:55 1008 29.77 837 24.72 3.3 38 89 1.7 35.1
18:00 1008 29.77 837 24.72 3.3 37.9 89 1.6 34.9
18:05 1008 29.77 837 24.72 3.1 37.6 90 1.7 35
18:10 1008 29.77 837 24.72 3 37.5 90 1.6 34.9
18:15 1008 29.77 837 24.72 2.9 37.2 90 1.5 34.7
18:20 1008 29.77 837 24.72 2.5 36.4 90 1 33.8
18:25 1008 29.77 837 24.72 2.2 35.9 91 0.8 33.5
18:30 1008 29.77 837 24.72 1.9 35.3 91 0.6 33
18:35 1008 29.77 837 24.72 1.5 34.8 93 0.5 32.9
18:40 1008 29.77 837 24.72 1.4 34.6 93 0.5 32.9
18:45 1008 29.77 837 24.72 1.4 34.5 94 0.6 33
18:50 1008 29.77 837 24.72 1.6 34.8 94 0.8 33.4
18:55 1008 29.77 837 24.72 1.7 35.1 93 0.8 33.4
19:00 1008 29.77 837 24.72 1.7 35.1 93 0.7 33.3
19:05 1008 29.77 837 24.72 1.9 35.4 92 0.7 33.2
19:10 1008 29.77 837 24.72 1.9 35.4 92 0.7 33.3
19:15 1008 29.77 837 24.72 2.1 35.7 91 0.8 33.5
19:20 1008 29.77 837 24.72 2.3 36.2 89 0.6 33.1
19:25 1008 29.77 838 24.75 2.3 36.1 89 0.7 33.2
19:30 1008 29.77 838 24.75 2.4 36.2 90 0.9 33.6
19:35 1009 29.8 838 24.75 2.5 36.5 90 1 33.7
19:40 1009 29.8 838 24.75 2.5 36.6 90 1.1 34
19:45 1009 29.8 838 24.75 2.5 36.6 90 1.1 34
19:50 1009 29.8 838 24.75 2.5 36.5 91 1.2 34.2
19:55 1009 29.8 838 24.75 2.5 36.5 90 1 33.8
20:00 1009 29.8 838 24.75 2.6 36.6 91 1.3 34.3
20:05 1009 29.8 838 24.75 2.7 36.9 90 1.3 34.3
20:10 1009 29.8 838 24.75 2.8 37 89 1.1 34
20:15 1009 29.8 838 24.75 2.7 36.8 90 1.2 34.1
20:20 1009 29.8 838 24.75 2.7 36.9 89 1.1 33.9
20:25 1009 29.8 838 24.75 2.6 36.7 90 1.1 34
20:30 1009 29.8 838 24.75 2.2 36 90 0.8 33.4
20:35 1009 29.8 838 24.75 1.6 34.8 93 0.5 32.9
20:40 1009 29.8 838 24.75 1.3 34.3 94 0.4 32.8
20:45 1009 29.8 838 24.75 1.1 33.9 96 0.4 32.8
20:50 1009 29.8 838 24.75 0.9 33.7 96 0.3 32.6
20:55 1009 29.8 838 24.75 0.9 33.5 96 0.3 32.6
21:00 1009 29.8 838 24.75 0.9 33.5 96 0.3 32.5
21:05 1009 29.8 838 24.75 0.7 33.3 97 0.2 32.4
21:10 1009 29.8 838 24.75 0.7 33.3 97 0.2 32.4
21:15 1009 29.8 838 24.75 0.8 33.4 97 0.3 32.5
21:20 1009 29.8 838 24.75 0.8 33.4 97 0.3 32.5
21:25 1009 29.8 839 24.78 0.7 33.3 97 0.3 32.5
21:30 1009 29.8 838 24.75 0.7 33.3 97 0.3 32.5
21:35 1009 29.8 838 24.75 0.8 33.4 97 0.3 32.6
21:40 1009 29.8 838 24.75 0.8 33.4 97 0.3 32.5
21:45 1009 29.8 838 24.75 0.8 33.5 96 0.3 32.5
21:50 1009 29.8 839 24.78 0.8 33.4 96 0.2 32.4
21:55 1009 29.8 838 24.75 0.8 33.4 96 0.2 32.3
22:00 1009 29.8 838 24.75 0.8 33.4 96 0.2 32.4
22:05 1009 29.8 839 24.78 0.8 33.4 96 0.2 32.4
22:10 1009 29.8 839 24.78 0.8 33.5 96 0.2 32.4
22:15 1009 29.8 839 24.78 0.8 33.5 96 0.2 32.4
22:20 1009 29.8 839 24.78 0.8 33.5 95 0.2 32.3
22:25 1009 29.8 839 24.78 0.9 33.6 95 0.2 32.3
22:30 1009 29.8 839 24.78 0.9 33.7 95 0.2 32.3
22:35 1009 29.8 839 24.78 0.9 33.6 95 0.1 32.2
22:40 1009 29.8 839 24.78 0.9 33.5 94 0 32.1
22:45 1009 29.8 839 24.78 0.8 33.5 94 -0 32
22:50 1009 29.8 839 24.78 0.9 33.5 94 -0.1 31.9
22:55 1009 29.8 839 24.78 0.9 33.7 92 -0.2 31.7
23:00 1009 29.8 839 24.78 1.1 34 91 -0.2 31.6
23:05 1009 29.8 839 24.78 1.2 34.1 90 -0.3 31.5
23:10 1009 29.8 839 24.78 1.2 34.1 93 0.1 32.1
23:15 1009 29.8 839 24.78 1.1 33.9 93 -0 32
23:20 1009 29.8 839 24.78 0.9 33.5 93 -0.1 31.8
23:25 1009 29.8 839 24.78 0.7 33.2 94 -0.2 31.6
23:30 1010 29.83 839 24.78 0.6 33.1 94 -0.2 31.6
23:35 1010 29.83 839 24.78 0.5 33 94 -0.4 31.4
23:40 1009 29.8 839 24.78 0.5 32.9 93 -0.5 31.2
23:45 1009 29.8 839 24.78 0.5 32.9 93 -0.6 31
23:50 1009 29.8 839 24.78 0.4 32.7 93 -0.6 31
23:55 1009 29.8 839 24.78 0.4 32.7 93 -0.6 30.9
24:00 1009 29.8 839 24.78 0.4 32.7 93 -0.6 30.9